createdAt,value
2022-11-17T00:00:44.580Z,8.68
2022-11-17T00:03:16.408Z,8.64
2022-11-17T00:05:44.880Z,8.61
2022-11-17T00:08:12.453Z,8.64
2022-11-17T00:10:39.790Z,8.64
2022-11-17T00:13:33.482Z,8.44
2022-11-17T00:16:01.149Z,8.41
2022-11-17T00:18:46.864Z,8.48
2022-11-17T00:21:21.419Z,8.59
2022-11-17T00:23:50.875Z,8.50
2022-11-17T00:26:27.361Z,8.56
2022-11-17T00:28:56.744Z,8.57
2022-11-17T00:31:44.201Z,8.40
2022-11-17T00:34:17.117Z,8.52
2022-11-17T00:36:52.894Z,8.62
2022-11-17T00:39:22.168Z,8.65
2022-11-17T00:41:49.944Z,8.54
2022-11-17T00:44:17.398Z,8.46
2022-11-17T00:46:44.739Z,8.35
2022-11-17T00:49:12.757Z,8.56
2022-11-17T00:51:40.339Z,8.58
2022-11-17T00:54:11.031Z,8.26
2022-11-17T00:56:38.359Z,8.45
2022-11-17T00:59:05.936Z,8.44
2022-11-17T01:01:33.353Z,8.36
2022-11-17T01:04:04.415Z,8.48
2022-11-17T01:06:40.725Z,8.56
2022-11-17T01:09:12.632Z,8.41
2022-11-17T01:11:41.409Z,8.37
2022-11-17T01:14:13.035Z,8.58
2022-11-17T01:16:41.030Z,8.55
2022-11-17T01:19:08.890Z,8.45
2022-11-17T01:21:36.271Z,8.48
2022-11-17T01:24:04.083Z,8.28
2022-11-17T01:26:34.742Z,8.41
2022-11-17T01:29:03.962Z,8.46
2022-11-17T01:31:37.599Z,8.48
2022-11-17T01:34:05.749Z,8.34
2022-11-17T01:36:57.494Z,8.46
2022-11-17T01:39:26.286Z,8.43
2022-11-17T01:41:54.726Z,8.37
2022-11-17T01:44:44.572Z,8.41
2022-11-17T01:47:15.422Z,8.42
2022-11-17T01:49:42.890Z,8.27
2022-11-17T01:52:11.823Z,8.39
2022-11-17T01:54:42.227Z,8.32
2022-11-17T01:57:26.310Z,8.37
2022-11-17T02:00:04.711Z,8.38
2022-11-17T02:02:34.502Z,8.35
2022-11-17T02:05:13.599Z,8.34
2022-11-17T02:07:43.881Z,8.13
2022-11-17T02:10:11.303Z,8.17
2022-11-17T02:12:38.741Z,8.21
2022-11-17T02:15:06.550Z,7.95
2022-11-17T02:17:40.434Z,8.07
2022-11-17T02:20:08.390Z,8.17
2022-11-17T02:22:44.794Z,8.16
2022-11-17T02:25:41.085Z,8.11
2022-11-17T02:28:25.115Z,8.07
2022-11-17T02:31:07.747Z,8.13
2022-11-17T02:33:48.046Z,8.03
2022-11-17T02:36:22.951Z,7.75
2022-11-17T02:38:58.136Z,7.69
2022-11-17T02:41:32.897Z,7.79
2022-11-17T02:44:19.609Z,7.83
2022-11-17T02:46:53.759Z,7.62
2022-11-17T02:49:26.095Z,7.67
2022-11-17T02:51:56.419Z,7.69
2022-11-17T02:54:26.893Z,7.79
2022-11-17T02:56:54.615Z,7.93
2022-11-17T02:59:49.202Z,7.97
2022-11-17T03:02:21.573Z,7.75
2022-11-17T03:05:13.409Z,7.98
2022-11-17T03:08:02.194Z,8.01
2022-11-17T03:10:44.703Z,8.00
2022-11-17T03:13:20.939Z,7.98
2022-11-17T03:15:53.923Z,7.97
2022-11-17T03:18:35.199Z,7.94
2022-11-17T03:21:48.588Z,7.77
2022-11-17T03:24:25.035Z,7.97
2022-11-17T03:27:00.524Z,7.89
2022-11-17T03:29:30.649Z,7.94
2022-11-17T03:32:02.192Z,7.93
2022-11-17T03:34:35.609Z,7.87
2022-11-17T03:37:07.102Z,7.95
2022-11-17T03:39:37.659Z,7.92
2022-11-17T03:42:17.378Z,7.82
2022-11-17T03:44:50.642Z,7.84
2022-11-17T03:47:20.921Z,7.89
2022-11-17T03:49:59.734Z,7.66
2022-11-17T03:52:29.713Z,7.64
2022-11-17T03:54:57.559Z,7.76
2022-11-17T03:57:54.914Z,7.75
2022-11-17T04:00:22.354Z,7.57
2022-11-17T04:02:55.615Z,7.41
2022-11-17T04:05:22.935Z,7.40
2022-11-17T04:07:50.403Z,7.48
2022-11-17T04:10:20.331Z,7.46
2022-11-17T04:13:06.666Z,7.63
2022-11-17T04:15:53.042Z,7.55
2022-11-17T04:18:20.943Z,7.56
2022-11-17T04:20:53.737Z,7.55
2022-11-17T04:23:21.594Z,7.51
2022-11-17T04:26:12.718Z,7.47
2022-11-17T04:28:43.923Z,7.34
2022-11-17T04:31:21.170Z,7.29
2022-11-17T04:33:49.660Z,6.89
2022-11-17T04:36:23.487Z,7.06
2022-11-17T04:38:53.464Z,6.97
2022-11-17T04:41:40.506Z,6.80
2022-11-17T04:44:09.510Z,6.65
2022-11-17T04:46:38.131Z,6.59
2022-11-17T04:49:06.255Z,6.46
2022-11-17T04:51:34.623Z,6.40
2022-11-17T04:54:03.190Z,6.35
2022-11-17T04:56:30.581Z,6.09
2022-11-17T04:58:58.042Z,6.19
2022-11-17T05:01:27.595Z,6.06
2022-11-17T05:03:57.600Z,5.72
2022-11-17T05:06:26.284Z,5.92
2022-11-17T05:08:57.931Z,5.88
2022-11-17T05:11:47.130Z,5.84
2022-11-17T05:14:16.692Z,5.64
2022-11-17T05:17:08.636Z,5.75
2022-11-17T05:19:38.454Z,5.73
2022-11-17T05:22:25.325Z,5.72
2022-11-17T05:24:53.010Z,5.64
2022-11-17T05:27:21.029Z,5.34
2022-11-17T05:29:48.539Z,5.38
2022-11-17T05:32:15.902Z,5.49
2022-11-17T05:34:43.206Z,5.29
2022-11-17T05:37:10.587Z,5.13
2022-11-17T05:39:37.969Z,5.23
2022-11-17T05:42:05.470Z,5.31
2022-11-17T05:44:33.178Z,5.33
2022-11-17T05:47:00.931Z,5.28
2022-11-17T05:49:28.180Z,5.25
2022-11-17T05:51:55.483Z,5.09
2022-11-17T05:54:22.964Z,5.10
2022-11-17T05:56:54.763Z,5.03
2022-11-17T05:59:37.418Z,4.59
2022-11-17T06:02:17.954Z,4.92
2022-11-17T06:04:46.425Z,4.88
2022-11-17T06:07:14.054Z,5.01
2022-11-17T06:09:42.573Z,4.97
2022-11-17T06:12:12.028Z,4.75
2022-11-17T06:14:39.856Z,4.88
2022-11-17T06:17:23.195Z,4.96
2022-11-17T06:19:58.621Z,4.82
2022-11-17T06:22:26.960Z,4.84
2022-11-17T06:24:55.173Z,4.60
2022-11-17T06:27:23.046Z,4.61
2022-11-17T06:29:50.428Z,4.54
2022-11-17T06:32:19.520Z,4.42
2022-11-17T06:34:55.217Z,4.53
2022-11-17T06:37:24.950Z,4.49
2022-11-17T06:39:52.988Z,4.53
2022-11-17T06:42:40.222Z,4.73
2022-11-17T06:45:08.192Z,5.00
2022-11-17T06:47:35.548Z,4.95
2022-11-17T06:50:03.218Z,4.89
2022-11-17T06:52:30.535Z,4.98
2022-11-17T06:54:57.899Z,4.94
2022-11-17T06:57:25.310Z,5.16
2022-11-17T06:59:52.837Z,5.51
2022-11-17T07:02:20.504Z,5.98
2022-11-17T07:04:47.797Z,5.91
2022-11-17T07:07:15.302Z,6.06
2022-11-17T07:09:42.553Z,6.12
2022-11-17T07:12:09.772Z,6.31
2022-11-17T07:14:37.274Z,6.12
2022-11-17T07:17:04.446Z,6.19
2022-11-17T07:19:31.669Z,6.11
2022-11-17T07:21:58.945Z,6.49
2022-11-17T07:24:26.168Z,5.98
2022-11-17T07:26:53.370Z,6.80
2022-11-17T07:29:20.730Z,6.65
2022-11-17T07:31:47.929Z,6.67
2022-11-17T07:34:15.165Z,6.62
2022-11-17T07:36:42.426Z,6.65
2022-11-17T07:39:09.708Z,6.54
2022-11-17T07:41:36.880Z,6.55
2022-11-17T07:44:04.285Z,6.29
2022-11-17T07:46:31.467Z,6.30
2022-11-17T07:48:58.713Z,6.08
2022-11-17T07:51:26.403Z,6.41
2022-11-17T07:53:53.654Z,6.40
2022-11-17T07:56:20.946Z,6.43
2022-11-17T07:58:48.318Z,6.95
2022-11-17T08:01:15.748Z,6.61
2022-11-17T08:03:43.929Z,7.11
2022-11-17T08:06:11.466Z,6.97
2022-11-17T08:08:39.177Z,6.71
2022-11-17T08:11:09.022Z,7.47
2022-11-17T08:13:37.032Z,7.72
2022-11-17T08:16:04.640Z,7.88
2022-11-17T08:18:32.796Z,8.21
2022-11-17T08:21:07.313Z,8.29
2022-11-17T08:23:35.241Z,8.43
2022-11-17T08:26:03.713Z,8.39
2022-11-17T08:28:31.403Z,8.32
2022-11-17T08:31:01.925Z,8.09
2022-11-17T08:33:29.388Z,7.97
2022-11-17T08:36:01.042Z,8.01
2022-11-17T08:38:31.057Z,8.33
2022-11-17T08:40:59.401Z,7.90
2022-11-17T08:43:27.574Z,8.38
2022-11-17T08:45:54.805Z,8.19
2022-11-17T08:48:22.045Z,8.69
2022-11-17T08:50:49.991Z,8.55
2022-11-17T08:53:19.567Z,8.64
2022-11-17T08:55:46.910Z,8.77
2022-11-17T08:58:14.165Z,8.42
2022-11-17T09:00:42.462Z,7.56
2022-11-17T09:03:10.905Z,8.39
2022-11-17T09:05:44.219Z,8.53
2022-11-17T09:08:44.044Z,8.44
2022-11-17T09:11:05.700Z,9.00
2022-11-17T09:13:33.676Z,9.06
2022-11-17T09:16:09.927Z,9.19
2022-11-17T09:18:38.409Z,8.85
2022-11-17T09:21:09.429Z,8.62
2022-11-17T09:23:37.610Z,9.16
2022-11-17T09:26:11.582Z,8.89
2022-11-17T09:28:39.356Z,8.77
2022-11-17T09:31:18.702Z,8.93
2022-11-17T09:33:46.284Z,9.03
2022-11-17T09:36:16.702Z,9.27
2022-11-17T09:38:44.773Z,9.24
2022-11-17T09:41:22.197Z,9.06
2022-11-17T09:44:02.460Z,9.29
2022-11-17T09:47:06.124Z,9.13
2022-11-17T09:49:55.241Z,8.98
2022-11-17T09:52:41.102Z,8.87
2022-11-17T09:55:08.347Z,9.03
2022-11-17T09:57:45.073Z,8.96
2022-11-17T10:00:16.775Z,9.21
2022-11-17T10:02:45.597Z,9.68
2022-11-17T10:05:14.352Z,9.38
2022-11-17T10:07:47.990Z,9.50
2022-11-17T10:10:31.004Z,9.74
2022-11-17T10:12:58.754Z,9.68
2022-11-17T10:15:30.742Z,9.52
2022-11-17T10:17:58.060Z,9.69
2022-11-17T10:20:25.265Z,9.88
2022-11-17T10:22:54.538Z,10.09
2022-11-17T10:25:43.934Z,10.45
2022-11-17T10:28:32.311Z,10.57
2022-11-17T10:31:10.206Z,10.49
2022-11-17T10:33:44.124Z,10.42
2022-11-17T10:36:14.459Z,10.54
2022-11-17T10:38:47.161Z,10.77
2022-11-17T10:41:18.776Z,10.70
2022-11-17T10:44:03.282Z,11.27
2022-11-17T10:46:41.585Z,10.97
2022-11-17T10:49:33.636Z,11.23
2022-11-17T10:52:19.105Z,11.18
2022-11-17T10:54:46.468Z,11.33
2022-11-17T10:57:21.708Z,11.36
2022-11-17T10:59:56.894Z,11.16
2022-11-17T11:02:34.570Z,10.95
2022-11-17T11:05:17.439Z,11.00
2022-11-17T11:07:45.149Z,11.06
2022-11-17T11:10:33.394Z,11.15
2022-11-17T11:13:00.748Z,11.20
2022-11-17T11:15:33.458Z,11.09
2022-11-17T11:18:01.081Z,11.29
2022-11-17T11:20:45.852Z,10.91
2022-11-17T11:23:16.090Z,11.01
2022-11-17T11:25:57.317Z,10.97
2022-11-17T11:28:39.013Z,10.93
2022-11-17T11:31:13.384Z,10.87
2022-11-17T11:34:23.747Z,10.80
2022-11-17T11:36:55.745Z,10.61
2022-11-17T11:39:43.165Z,10.66
2022-11-17T11:42:36.002Z,10.97
2022-11-17T11:45:22.141Z,11.03
2022-11-17T11:48:07.868Z,10.95
2022-11-17T11:50:57.910Z,11.15
2022-11-17T11:53:31.917Z,11.21
2022-11-17T11:56:11.297Z,11.26
2022-11-17T11:58:45.150Z,11.29
2022-11-17T12:01:14.714Z,11.44
2022-11-17T12:03:56.851Z,11.63
2022-11-17T12:06:42.787Z,12.18
2022-11-17T12:09:40.016Z,12.65
2022-11-17T12:12:13.455Z,12.08
2022-11-17T12:15:12.884Z,12.78
2022-11-17T12:17:51.992Z,12.83
2022-11-17T12:20:51.403Z,12.91
2022-11-17T12:23:37.501Z,13.07
2022-11-17T12:26:05.273Z,12.84
2022-11-17T12:28:40.800Z,12.42
2022-11-17T12:31:32.568Z,12.34
2022-11-17T12:33:59.948Z,12.19
2022-11-17T12:36:36.894Z,12.09
2022-11-17T12:39:08.929Z,12.18
2022-11-17T12:41:48.092Z,12.18
2022-11-17T12:44:37.300Z,12.27
2022-11-17T12:47:14.180Z,11.60
2022-11-17T12:50:07.901Z,11.60
2022-11-17T12:52:47.389Z,11.66
2022-11-17T12:55:33.113Z,11.90
2022-11-17T12:58:21.557Z,11.86
2022-11-17T13:01:03.100Z,11.49
2022-11-17T13:03:38.903Z,11.62
2022-11-17T13:06:34.225Z,11.35
2022-11-17T13:09:21.610Z,11.36
2022-11-17T13:12:06.199Z,11.03
2022-11-17T13:14:51.476Z,10.93
2022-11-17T13:17:21.997Z,11.07
2022-11-17T13:20:01.637Z,11.25
2022-11-17T13:22:29.111Z,11.45
2022-11-17T13:24:57.913Z,11.47
2022-11-17T13:27:31.994Z,11.66
2022-11-17T13:30:30.128Z,11.27
2022-11-17T13:33:00.873Z,11.39
2022-11-17T13:35:33.974Z,11.23
2022-11-17T13:38:22.862Z,11.31
2022-11-17T13:40:51.977Z,11.69
2022-11-17T13:43:24.274Z,11.16
2022-11-17T13:45:53.965Z,11.34
2022-11-17T13:48:34.329Z,11.77
2022-11-17T13:51:20.140Z,11.21
2022-11-17T13:53:53.225Z,10.93
2022-11-17T13:56:32.168Z,10.84
2022-11-17T13:59:02.659Z,10.73
2022-11-17T14:01:31.413Z,10.47
2022-11-17T14:04:20.073Z,10.73
2022-11-17T14:06:57.448Z,10.36
2022-11-17T14:09:27.858Z,10.48
2022-11-17T14:11:55.772Z,10.12
2022-11-17T14:14:32.788Z,10.22
2022-11-17T14:17:18.752Z,10.13
2022-11-17T14:19:46.688Z,9.93
2022-11-17T14:22:21.348Z,9.82
2022-11-17T14:24:51.897Z,9.54
2022-11-17T14:27:31.983Z,9.55
2022-11-17T14:29:59.304Z,9.32
2022-11-17T14:32:26.727Z,9.04
2022-11-17T14:34:54.080Z,9.02
2022-11-17T14:37:21.440Z,8.95
2022-11-17T14:39:48.927Z,8.78
2022-11-17T14:42:16.284Z,8.90
2022-11-17T14:44:43.661Z,8.66
2022-11-17T14:47:11.042Z,8.53
2022-11-17T14:49:38.361Z,8.19
2022-11-17T14:52:05.666Z,8.40
2022-11-17T14:54:33.053Z,8.31
2022-11-17T14:57:00.417Z,8.15
2022-11-17T14:59:27.761Z,8.17
2022-11-17T15:01:55.117Z,8.13
2022-11-17T15:04:49.014Z,7.98
2022-11-17T15:07:09.991Z,8.01
2022-11-17T15:09:37.356Z,7.77
2022-11-17T15:12:04.893Z,7.69
2022-11-17T15:14:32.400Z,7.69
2022-11-17T15:16:59.734Z,7.43
2022-11-17T15:19:27.174Z,7.69
2022-11-17T15:21:54.594Z,7.65
2022-11-17T15:24:22.182Z,7.51
2022-11-17T15:26:49.628Z,7.30
2022-11-17T15:29:17.232Z,7.32
2022-11-17T15:31:45.033Z,7.43
2022-11-17T15:34:19.723Z,7.56
2022-11-17T15:36:48.542Z,7.30
2022-11-17T15:39:16.808Z,7.32
2022-11-17T15:41:44.761Z,7.76
2022-11-17T15:44:12.064Z,7.36
2022-11-17T15:46:44.287Z,7.71
2022-11-17T15:49:14.692Z,7.41
2022-11-17T15:55:49.392Z,7.48
2022-11-17T15:58:16.711Z,7.35
2022-11-17T16:00:44.167Z,7.39
2022-11-17T16:03:11.529Z,7.19
2022-11-17T16:05:39.071Z,7.40
2022-11-17T16:08:06.524Z,7.71
2022-11-17T16:10:33.892Z,7.39
2022-11-17T16:13:01.320Z,7.49
2022-11-17T16:15:28.948Z,7.11
2022-11-17T16:17:56.254Z,6.93
2022-11-17T16:20:23.668Z,6.90
2022-11-17T16:22:51.004Z,7.00
2022-11-17T16:25:18.349Z,7.03
2022-11-17T16:27:46.285Z,7.14
2022-11-17T16:30:14.004Z,7.08
2022-11-17T16:32:41.293Z,7.09
2022-11-17T16:35:08.938Z,7.22
2022-11-17T16:37:36.275Z,7.30
2022-11-17T16:40:04.929Z,7.26
2022-11-17T16:42:32.660Z,7.12
2022-11-17T16:45:00.375Z,7.40
2022-11-17T16:47:28.665Z,7.12
2022-11-17T16:49:56.084Z,7.42
2022-11-17T16:52:23.400Z,7.21
2022-11-17T16:54:50.784Z,7.13
2022-11-17T16:57:18.222Z,7.10
2022-11-17T16:59:45.509Z,7.24
2022-11-17T17:02:13.084Z,7.25
2022-11-17T17:04:40.496Z,7.00
2022-11-17T17:07:07.838Z,7.04
2022-11-17T17:09:37.326Z,7.04
2022-11-17T17:12:05.173Z,6.84
2022-11-17T17:14:32.473Z,7.24
2022-11-17T17:16:59.864Z,7.47
2022-11-17T17:19:27.335Z,7.59
2022-11-17T17:21:54.998Z,7.72
2022-11-17T17:24:22.401Z,7.73
2022-11-17T17:26:49.726Z,7.63
2022-11-17T17:29:17.271Z,7.80
2022-11-17T17:31:44.787Z,7.74
2022-11-17T17:34:12.844Z,7.60
2022-11-17T17:36:40.439Z,7.73
2022-11-17T17:39:08.094Z,7.78
2022-11-17T17:41:39.705Z,7.64
2022-11-17T17:44:08.488Z,7.80
2022-11-17T17:46:37.987Z,7.82
2022-11-17T17:49:06.209Z,7.86
2022-11-17T17:51:37.393Z,7.54
2022-11-17T17:54:04.875Z,7.41
2022-11-17T17:56:33.997Z,7.74
2022-11-17T17:59:01.449Z,7.65
2022-11-17T18:01:33.081Z,7.94
2022-11-17T18:04:04.793Z,7.87
2022-11-17T18:06:38.353Z,7.81
2022-11-17T18:09:07.902Z,7.92
2022-11-17T18:11:35.793Z,7.87
2022-11-17T18:14:04.510Z,7.82
2022-11-17T18:16:33.867Z,7.64
2022-11-17T18:19:06.397Z,7.69
2022-11-17T18:21:34.583Z,7.56
2022-11-17T18:24:02.736Z,7.53
2022-11-17T18:26:32.856Z,7.54
2022-11-17T18:29:06.805Z,7.56
2022-11-17T18:31:36.058Z,7.45
2022-11-17T18:34:21.108Z,7.48
2022-11-17T18:36:53.388Z,7.42
2022-11-17T18:39:21.388Z,7.17
2022-11-17T18:41:48.774Z,7.19
2022-11-17T18:44:18.467Z,7.26
2022-11-17T18:46:46.444Z,7.39
2022-11-17T18:49:14.522Z,7.25
2022-11-17T18:51:42.250Z,7.09
2022-11-17T18:54:12.972Z,7.39
2022-11-17T18:56:40.517Z,7.30
2022-11-17T18:59:11.392Z,7.35
2022-11-17T19:01:43.170Z,7.25
2022-11-17T19:04:14.141Z,7.29
2022-11-17T19:06:42.111Z,7.12
2022-11-17T19:09:09.554Z,7.21
2022-11-17T19:11:37.089Z,7.47
2022-11-17T19:16:44.504Z,7.46
2022-11-17T19:19:13.683Z,7.57
2022-11-17T19:21:41.868Z,7.33
2022-11-17T19:24:09.236Z,7.37
2022-11-17T19:26:36.677Z,7.43
2022-11-17T19:29:09.897Z,7.39
2022-11-17T19:31:40.173Z,7.07
2022-11-17T19:34:07.552Z,7.26
2022-11-17T19:36:35.318Z,7.30
2022-11-17T19:39:03.820Z,7.14
2022-11-17T19:41:36.788Z,7.22
2022-11-17T19:44:06.874Z,7.20
2022-11-17T19:46:36.294Z,7.34
2022-11-17T19:49:05.948Z,7.34
2022-11-17T19:51:38.529Z,7.19
2022-11-17T19:54:07.835Z,6.86
2022-11-17T19:56:35.952Z,6.92
2022-11-17T19:59:03.543Z,6.99
2022-11-17T20:01:32.332Z,7.14
2022-11-17T20:04:01.101Z,7.02
2022-11-17T20:06:32.023Z,6.94
2022-11-17T20:08:59.458Z,7.16
2022-11-17T20:11:28.297Z,7.28
2022-11-17T20:13:56.283Z,7.13
2022-11-17T20:16:25.912Z,6.87
2022-11-17T20:18:55.404Z,7.20
2022-11-17T20:21:24.060Z,7.20
2022-11-17T20:23:51.561Z,7.00
2022-11-17T20:26:20.017Z,7.17
2022-11-17T20:28:48.010Z,7.15
2022-11-17T20:31:35.480Z,7.30
2022-11-17T20:34:05.329Z,7.23
2022-11-17T20:36:34.144Z,7.10
2022-11-17T20:39:04.161Z,7.34
2022-11-17T20:41:31.891Z,7.36
2022-11-17T20:44:00.545Z,7.47
2022-11-17T20:46:28.241Z,7.41
2022-11-17T20:48:55.745Z,7.33
2022-11-17T20:51:24.947Z,7.16
2022-11-17T20:53:52.450Z,7.23
2022-11-17T20:56:20.264Z,7.17
2022-11-17T20:58:47.740Z,6.91
2022-11-17T21:01:17.932Z,6.65
2022-11-17T21:03:46.071Z,6.90
2022-11-17T21:06:14.383Z,6.73
2022-11-17T21:08:43.384Z,6.60
2022-11-17T21:11:37.998Z,6.35
2022-11-17T21:14:08.222Z,6.36
2022-11-17T21:16:38.017Z,6.26
2022-11-17T21:19:06.099Z,6.28
2022-11-17T21:21:33.792Z,6.09
2022-11-17T21:24:01.365Z,5.90
2022-11-17T21:26:28.693Z,5.92
2022-11-17T21:29:00.461Z,6.05
2022-11-17T21:31:31.856Z,6.05
2022-11-17T21:34:02.097Z,6.19
2022-11-17T21:36:31.113Z,6.21
2022-11-17T21:38:59.049Z,5.93
2022-11-17T21:41:28.532Z,5.86
2022-11-17T21:44:00.154Z,5.75
2022-11-17T21:46:30.233Z,5.85
2022-11-17T21:48:58.993Z,5.55
2022-11-17T21:51:38.506Z,5.72
2022-11-17T21:54:09.916Z,5.71
2022-11-17T21:56:37.521Z,5.77
2022-11-17T21:59:09.864Z,5.71
2022-11-17T22:01:37.996Z,5.61
2022-11-17T22:04:05.677Z,5.24
2022-11-17T22:06:33.015Z,5.17
2022-11-17T22:09:00.834Z,5.23
2022-11-17T22:11:36.749Z,5.49
2022-11-17T22:14:13.210Z,5.55
2022-11-17T22:16:53.613Z,5.59
2022-11-17T22:19:23.351Z,5.29
2022-11-17T22:21:52.528Z,5.43
2022-11-17T22:24:21.243Z,5.63
2022-11-17T22:26:48.813Z,5.53
2022-11-17T22:29:18.706Z,5.77
2022-11-17T22:31:48.677Z,5.68
2022-11-17T22:34:17.074Z,6.07
2022-11-17T22:36:44.621Z,5.76
2022-11-17T22:39:11.919Z,5.83
2022-11-17T22:41:39.497Z,5.92
2022-11-17T22:44:07.186Z,5.78
2022-11-17T22:46:35.178Z,5.92
2022-11-17T22:49:03.273Z,5.70
2022-11-17T22:51:49.165Z,5.84
2022-11-17T22:54:16.817Z,5.79
2022-11-17T22:56:44.939Z,5.86
2022-11-17T22:59:12.421Z,5.79
2022-11-17T23:01:39.777Z,5.87
2022-11-17T23:04:07.213Z,5.82
2022-11-17T23:06:34.724Z,6.01
2022-11-17T23:09:02.033Z,5.80
2022-11-17T23:11:37.181Z,6.00
2022-11-17T23:14:08.031Z,5.87
2022-11-17T23:16:37.479Z,5.93
2022-11-17T23:19:05.739Z,5.92
2022-11-17T23:21:33.101Z,6.01
2022-11-17T23:24:00.601Z,5.67
2022-11-17T23:26:27.944Z,5.88
2022-11-17T23:28:55.361Z,5.93
2022-11-17T23:31:22.724Z,5.95
2022-11-17T23:33:50.101Z,5.76
2022-11-17T23:36:21.957Z,5.86
2022-11-17T23:38:50.787Z,5.92
2022-11-17T23:41:20.402Z,6.01
2022-11-17T23:43:52.391Z,6.37
2022-11-17T23:46:22.389Z,6.23
2022-11-17T23:48:50.004Z,6.13
2022-11-17T23:51:21.976Z,5.98
2022-11-17T23:53:52.078Z,6.08
2022-11-17T23:56:20.544Z,6.11
2022-11-17T23:58:48.277Z,6.11
